KAMN/AMN METAR and TAF weather

Enter ICAO airport designator
Station Type Date Time Source
KAMN METAR 2022/01/25 04:55 UTC NOAA

KAMN 250455Z AUTO 31004KT 10SM SCT060 M11/M13 A2987 RMK AO2 T11101133


Station Type Date Time Source
KAMN Decoded METAR 2022/01/25 04:55 UTC NOAA

Alma, Gratiot Community Airport, MI, United States (KAMN) 43-19-19N 084-41-16W
Jan 24, 2022 - 11:55 PM EST / 2022.01.25 0455 UTC
Wind: from the NW (310 degrees) at 5 MPH (4 KT):0
Visibility: 10 mile(s):0
Sky conditions: partly cloudy
Temperature: 12.2 F (-11.0 C)
Windchill: 3 F (-16 C):1
Dew Point: 8.1 F (-13.3 C)
Relative Humidity: 83%
Pressure (altimeter): 29.87 in. Hg (1011 hPa)
ob: KAMN 250455Z AUTO 31004KT 10SM SCT060 M11/M13 A2987 RMK AO2 T11101133
cycle: 5

Station Type Date Time Source
KAMN TAF UTC NOAA

Error!

Example: see airport list